Time;durP1;ratioP1;P1;durP2;ratioP2;P2;SDS_P1;SDS_P2;PMS_P1;PMS_P2;Temp;Humidity;BMP_temperature;BMP_pressure;BME280_temperature;BME280_humidity;BME280_pressure;Samples;Min_cycle;Max_cycle;Signal;HPM_P1;HPM_P2
2023/07/26 00:00:16;;;;;;;5.07;2.10;;;20.20;99.90;;;;;;5030617;28;20504;-42
2023/07/26 00:02:41;;;;;;;3.20;2.47;;;20.20;99.90;;;;;;5030747;28;20029;-41
2023/07/26 00:05:07;;;;;;;2.70;2.00;;;20.20;99.90;;;;;;5030851;28;20021;-42
2023/07/26 00:07:33;;;;;;;2.90;2.00;;;20.20;99.90;;;;;;5030746;28;20092;-39
2023/07/26 00:09:58;;;;;;;2.45;1.88;;;20.20;99.90;;;;;;5030597;28;20457;-41
2023/07/26 00:12:26;;;;;;;2.80;1.83;;;20.20;99.90;;;;;;5030816;28;20025;-43
2023/07/26 00:14:52;;;;;;;3.30;1.83;;;20.20;99.90;;;;;;5030683;28;20024;-41
2023/07/26 00:17:18;;;;;;;4.47;2.00;;;20.20;99.90;;;;;;5030594;28;20488;-41
2023/07/26 00:19:43;;;;;;;5.13;2.08;;;20.20;99.90;;;;;;5030280;28;20037;-40
2023/07/26 00:22:09;;;;;;;3.50;1.90;;;20.20;99.90;;;;;;5032438;28;20499;-40
2023/07/26 00:24:35;;;;;;;3.58;2.25;;;20.20;99.90;;;;;;5034399;28;20029;-41
2023/07/26 00:27:00;;;;;;;3.22;2.05;;;20.20;99.90;;;;;;5034228;28;20563;-41
2023/07/26 00:29:26;;;;;;;2.83;2.10;;;20.20;99.90;;;;;;5034069;28;20029;-42
2023/07/26 00:31:52;;;;;;;2.47;2.00;;;20.20;99.90;;;;;;5034289;28;20041;-42
2023/07/26 00:34:17;;;;;;;2.63;2.10;;;20.20;99.90;;;;;;5034261;28;20362;-44
2023/07/26 00:36:43;;;;;;;3.08;2.00;;;20.20;99.90;;;;;;5034089;28;20070;-42
2023/07/26 00:39:09;;;;;;;2.15;1.95;;;20.10;99.90;;;;;;5016258;28;20491;-44
2023/07/26 00:41:34;;;;;;;3.28;2.00;;;20.10;99.90;;;;;;5034296;28;20321;-41
2023/07/26 00:44:00;;;;;;;2.65;2.20;;;20.10;99.90;;;;;;5034216;28;20432;-41
2023/07/26 00:46:26;;;;;;;2.55;1.88;;;20.20;99.90;;;;;;5016175;28;20036;-40
2023/07/26 00:48:52;;;;;;;2.20;1.88;;;20.10;99.90;;;;;;5033679;28;20397;-41
2023/07/26 00:51:18;;;;;;;2.65;1.80;;;20.10;99.90;;;;;;5033866;28;20026;-41
2023/07/26 00:53:45;;;;;;;3.28;2.10;;;20.10;99.90;;;;;;5033853;28;20079;-41
2023/07/26 00:56:10;;;;;;;8.45;2.25;;;20.20;99.90;;;;;;5034133;28;20485;-44
2023/07/26 00:58:36;;;;;;;4.60;2.00;;;20.20;99.90;;;;;;5033639;28;20083;-41
2023/07/26 01:01:03;;;;;;;3.15;1.90;;;20.10;99.90;;;;;;5033637;28;20053;-41
2023/07/26 01:03:29;;;;;;;2.85;1.80;;;20.10;99.90;;;;;;5033865;28;20029;-43
2023/07/26 01:05:54;;;;;;;3.53;1.90;;;20.10;99.90;;;;;;5015793;28;20079;-41
2023/07/26 01:08:42;;;;;;;2.47;1.80;;;20.10;99.90;;;;;;5033490;28;20056;-42
2023/07/26 01:11:27;;;;;;;2.15;1.60;;;20.10;99.90;;;;;;5033604;28;20116;-44
2023/07/26 01:14:05;;;;;;;2.47;2.00;;;20.10;99.90;;;;;;5033479;28;20028;-40
2023/07/26 01:16:31;;;;;;;3.60;1.70;;;20.10;99.90;;;;;;5033391;28;20047;-40
2023/07/26 01:18:57;;;;;;;2.10;1.90;;;20.10;99.90;;;;;;5015149;28;20451;-42
2023/07/26 01:21:22;;;;;;;2.00;1.80;;;20.10;99.90;;;;;;5033687;28;20104;-42
2023/07/26 01:23:48;;;;;;;2.13;1.70;;;20.10;99.90;;;;;;5033234;28;20500;-39
2023/07/26 01:26:14;;;;;;;2.72;1.90;;;20.10;99.90;;;;;;5033241;28;20083;-41
2023/07/26 01:28:39;;;;;;;3.35;1.73;;;20.10;99.90;;;;;;5033002;28;20083;-40
2023/07/26 01:31:08;;;;;;;2.55;1.95;;;20.10;99.90;;;;;;5032908;28;20025;-41
2023/07/26 01:33:35;;;;;;;2.90;2.08;;;20.10;99.90;;;;;;5032439;28;20075;-41
2023/07/26 01:36:03;;;;;;;4.00;1.88;;;20.10;99.90;;;;;;5032977;28;20033;-40
2023/07/26 01:38:30;;;;;;;3.17;1.85;;;20.10;99.90;;;;;;5032937;28;20021;-39
2023/07/26 01:40:57;;;;;;;2.58;1.50;;;20.10;99.90;;;;;;5014961;28;20492;-41
2023/07/26 01:43:23;;;;;;;2.28;1.60;;;20.10;99.90;;;;;;5033212;28;20380;-39
2023/07/26 01:45:48;;;;;;;1.63;1.40;;;20.10;99.90;;;;;;5032834;28;20029;-41
2023/07/26 01:48:14;;;;;;;2.40;1.85;;;20.10;99.90;;;;;;5032640;28;20124;-41
2023/07/26 01:50:39;;;;;;;2.03;1.70;;;20.10;99.90;;;;;;5032620;28;20033;-41
2023/07/26 01:53:05;;;;;;;2.35;1.90;;;20.10;99.90;;;;;;5032772;28;20040;-42
2023/07/26 01:55:31;;;;;;;1.83;1.70;;;20.10;99.90;;;;;;5014852;28;20068;-42
2023/07/26 01:57:56;;;;;;;2.03;1.83;;;20.00;99.90;;;;;;5032600;28;20026;-40
2023/07/26 02:00:22;;;;;;;2.88;1.48;;;20.10;99.90;;;;;;5032345;28;20033;-41
2023/07/26 02:02:47;;;;;;;3.22;1.40;;;20.10;99.90;;;;;;5032463;28;20116;-41
2023/07/26 02:05:13;;;;;;;2.55;1.67;;;20.10;99.90;;;;;;5032484;28;20014;-40
2023/07/26 02:07:38;;;;;;;2.42;1.60;;;20.00;99.90;;;;;;5032396;28;20036;-41
2023/07/26 02:10:04;;;;;;;1.58;1.48;;;20.00;99.90;;;;;;5032433;28;20025;-40
2023/07/26 02:12:30;;;;;;;1.52;1.40;;;20.10;99.90;;;;;;5032343;28;20460;-41
2023/07/26 02:14:56;;;;;;;1.58;1.35;;;20.00;99.90;;;;;;5032264;28;20028;-40
2023/07/26 02:17:21;;;;;;;3.00;1.50;;;20.00;99.90;;;;;;5032076;28;20028;-42
2023/07/26 02:19:47;;;;;;;2.28;1.60;;;20.00;99.90;;;;;;5031739;28;20041;-41
2023/07/26 02:22:12;;;;;;;2.22;1.45;;;20.00;99.90;;;;;;5032220;28;20079;-42
2023/07/26 02:24:38;;;;;;;1.98;1.50;;;20.00;99.90;;;;;;5032107;28;20025;-40
2023/07/26 02:27:04;;;;;;;1.52;1.42;;;20.00;99.90;;;;;;5032192;28;20075;-40
2023/07/26 02:29:30;;;;;;;2.55;1.45;;;20.00;99.90;;;;;;5031657;28;20033;-39
2023/07/26 02:31:57;;;;;;;1.95;1.40;;;20.00;99.90;;;;;;5031940;28;20028;-43
2023/07/26 02:34:22;;;;;;;1.80;1.40;;;20.00;99.90;;;;;;5031883;28;20025;-41
2023/07/26 02:36:48;;;;;;;3.38;1.50;;;20.00;99.90;;;;;;5031798;28;20029;-46
2023/07/26 02:39:14;;;;;;;2.08;1.63;;;20.00;99.90;;;;;;5031556;28;20021;-41
2023/07/26 02:41:39;;;;;;;2.20;1.67;;;20.00;99.90;;;;;;5031800;28;20022;-43
2023/07/26 02:44:06;;;;;;;1.52;1.15;;;20.00;99.90;;;;;;5031758;28;20025;-44
2023/07/26 02:46:31;;;;;;;1.92;1.60;;;20.00;99.90;;;;;;5030828;28;20021;-40
2023/07/26 02:48:57;;;;;;;1.60;1.20;;;20.00;99.90;;;;;;5031429;28;20025;-42
2023/07/26 02:51:22;;;;;;;2.83;1.50;;;20.00;99.90;;;;;;5031646;28;20029;-40
2023/07/26 02:53:48;;;;;;;3.00;1.70;;;20.00;99.90;;;;;;5031819;28;20104;-46
2023/07/26 02:56:14;;;;;;;2.35;1.65;;;20.00;99.90;;;;;;5031550;28;20489;-39
2023/07/26 02:58:39;;;;;;;2.60;1.52;;;20.00;99.90;;;;;;5031497;28;20026;-41
2023/07/26 03:01:05;;;;;;;1.83;1.45;;;20.00;99.90;;;;;;5031332;28;20471;-41
2023/07/26 03:03:30;;;;;;;3.40;1.90;;;20.00;99.90;;;;;;5031460;28;20021;-42
2023/07/26 03:05:57;;;;;;;2.67;1.60;;;20.00;99.90;;;;;;5031631;28;20109;-41
2023/07/26 03:08:23;;;;;;;2.03;1.63;;;20.00;99.90;;;;;;5031334;28;20025;-43
2023/07/26 03:10:52;;;;;;;2.35;1.60;;;20.00;99.90;;;;;;5031182;28;20025;-43
2023/07/26 03:13:18;;;;;;;2.95;1.70;;;19.90;99.90;;;;;;5031312;28;20088;-42
2023/07/26 03:15:45;;;;;;;1.83;1.33;;;19.90;99.90;;;;;;5031609;28;20031;-42
2023/07/26 03:18:10;;;;;;;1.85;1.48;;;19.90;99.90;;;;;;5031080;28;20061;-42
2023/07/26 03:20:36;;;;;;;3.33;1.48;;;19.90;99.90;;;;;;5031021;28;20063;-42
2023/07/26 03:23:02;;;;;;;2.65;1.50;;;19.90;99.90;;;;;;5031228;28;20097;-43
2023/07/26 03:25:27;;;;;;;1.33;1.23;;;19.90;99.90;;;;;;5031232;28;20412;-40
2023/07/26 03:27:53;;;;;;;2.45;1.55;;;19.90;99.90;;;;;;5031120;28;20031;-44
2023/07/26 03:30:19;;;;;;;3.40;1.58;;;19.90;99.90;;;;;;5030898;28;20500;-40
2023/07/26 03:32:44;;;;;;;2.50;1.40;;;19.90;99.90;;;;;;5031223;28;20491;-40
2023/07/26 03:35:10;;;;;;;2.53;1.45;;;19.90;99.90;;;;;;5031101;28;20029;-42
2023/07/26 03:37:35;;;;;;;2.97;1.40;;;19.90;99.90;;;;;;5031096;28;20056;-40
2023/07/26 03:40:01;;;;;;;2.63;1.40;;;19.90;99.90;;;;;;5030898;28;20416;-43
2023/07/26 03:42:27;;;;;;;2.85;1.20;;;19.90;99.90;;;;;;5031032;28;20026;-41
2023/07/26 03:44:53;;;;;;;1.55;1.35;;;19.90;99.90;;;;;;5030897;28;20021;-42
2023/07/26 03:47:19;;;;;;;2.13;1.42;;;19.90;99.90;;;;;;5013422;28;20025;-43
2023/07/26 03:49:44;;;;;;;2.03;1.50;;;19.90;99.90;;;;;;5030715;28;20485;-41
2023/07/26 03:52:10;;;;;;;1.67;1.20;;;19.90;99.90;;;;;;5031015;28;20054;-44
2023/07/26 03:54:35;;;;;;;2.85;1.35;;;19.90;99.90;;;;;;5031075;28;20028;-44
2023/07/26 03:57:01;;;;;;;1.10;1.00;;;19.90;99.90;;;;;;5032517;28;20512;-41
2023/07/26 03:59:27;;;;;;;1.90;1.33;;;19.90;99.90;;;;;;5034616;28;20032;-41
2023/07/26 04:01:52;;;;;;;2.75;1.40;;;19.90;99.90;;;;;;5034793;28;20025;-39
2023/07/26 04:04:18;;;;;;;1.77;1.30;;;19.90;99.90;;;;;;5034774;28;20108;-41
2023/07/26 04:06:43;;;;;;;1.40;1.30;;;19.90;99.90;;;;;;5034781;28;20397;-41
2023/07/26 04:09:09;;;;;;;3.13;1.20;;;19.90;99.90;;;;;;5034809;28;20109;-41
2023/07/26 04:11:34;;;;;;;1.80;1.20;;;19.80;99.90;;;;;;5034659;28;20025;-40
2023/07/26 04:14:00;;;;;;;1.33;1.10;;;19.80;99.90;;;;;;5034504;28;20021;-40
2023/07/26 04:16:26;;;;;;;1.10;1.00;;;19.80;99.90;;;;;;5034450;28;20025;-43
2023/07/26 04:18:52;;;;;;;1.65;1.20;;;19.80;99.90;;;;;;5034169;28;20069;-41
2023/07/26 04:21:18;;;;;;;2.40;1.52;;;19.80;99.90;;;;;;5034455;28;20060;-40
2023/07/26 04:23:45;;;;;;;1.90;1.27;;;19.80;99.90;;;;;;5034510;28;20069;-41
2023/07/26 04:26:11;;;;;;;2.08;1.35;;;19.80;99.90;;;;;;5034306;28;20063;-40
2023/07/26 04:28:38;;;;;;;1.85;1.20;;;19.80;99.90;;;;;;5034157;28;20025;-41
2023/07/26 04:31:03;;;;;;;1.90;1.17;;;19.80;99.90;;;;;;5034081;28;20036;-41
2023/07/26 04:33:29;;;;;;;2.17;1.38;;;19.80;99.90;;;;;;5034153;28;20025;-40
2023/07/26 04:35:57;;;;;;;2.20;1.10;;;19.80;99.90;;;;;;5034114;28;20040;-41
2023/07/26 04:38:23;;;;;;;2.17;1.30;;;19.80;99.90;;;;;;5034104;28;20024;-40
2023/07/26 04:40:48;;;;;;;1.13;1.00;;;19.80;99.90;;;;;;5033848;28;20026;-42
2023/07/26 04:43:16;;;;;;;4.43;1.20;;;19.80;99.90;;;;;;5033961;28;20025;-41
2023/07/26 04:45:42;;;;;;;1.23;1.10;;;19.80;99.90;;;;;;5016272;28;20068;-40
2023/07/26 04:48:08;;;;;;;2.47;1.20;;;19.80;99.90;;;;;;5033909;28;20104;-41
2023/07/26 04:50:33;;;;;;;1.80;1.10;;;19.80;99.90;;;;;;5033763;28;20451;-41
2023/07/26 04:52:59;;;;;;;1.92;1.08;;;19.80;99.90;;;;;;5033848;28;20485;-39
2023/07/26 04:55:24;;;;;;;1.60;1.20;;;19.80;99.90;;;;;;5033697;28;20029;-41
2023/07/26 04:57:50;;;;;;;3.05;1.17;;;19.80;99.90;;;;;;5033640;28;20032;-41
2023/07/26 05:00:16;;;;;;;3.45;1.10;;;19.80;99.90;;;;;;5033403;28;20111;-41
2023/07/26 05:02:41;;;;;;;1.35;1.00;;;19.80;99.90;;;;;;5033725;28;20025;-43
2023/07/26 05:05:07;;;;;;;1.25;1.00;;;19.80;99.90;;;;;;5033753;28;20462;-42
2023/07/26 05:07:33;;;;;;;3.17;1.05;;;19.80;99.90;;;;;;5033237;28;20032;-44
2023/07/26 05:09:58;;;;;;;1.10;1.00;;;19.80;99.90;;;;;;5032647;28;20405;-41
2023/07/26 05:12:24;;;;;;;2.30;1.10;;;19.80;99.90;;;;;;5033519;28;20228;-41
2023/07/26 05:14:50;;;;;;;2.65;1.10;;;19.80;99.90;;;;;;5033511;28;20025;-40
2023/07/26 05:17:15;;;;;;;2.08;1.02;;;19.80;99.90;;;;;;5033411;28;20485;-43
2023/07/26 05:19:41;;;;;;;2.28;1.10;;;19.80;99.90;;;;;;5033018;28;20026;-40
2023/07/26 05:22:06;;;;;;;2.60;0.98;;;19.80;99.90;;;;;;5033374;28;20025;-42
2023/07/26 05:24:32;;;;;;;2.50;1.55;;;19.80;99.90;;;;;;5033352;28;20029;-42
2023/07/26 05:26:59;;;;;;;1.45;1.15;;;19.80;99.90;;;;;;5033219;28;20036;-42
2023/07/26 05:29:25;;;;;;;1.73;1.25;;;19.80;99.90;;;;;;5032903;28;20385;-41
2023/07/26 05:31:51;;;;;;;1.55;0.98;;;19.80;99.90;;;;;;5033421;28;20036;-41
2023/07/26 05:34:16;;;;;;;2.00;1.10;;;19.80;99.90;;;;;;5033244;28;20033;-41
2023/07/26 05:36:42;;;;;;;2.78;1.30;;;19.80;99.90;;;;;;5033013;28;20032;-41
2023/07/26 05:39:08;;;;;;;3.08;1.27;;;19.80;99.90;;;;;;5032659;28;20017;-41
2023/07/26 05:41:33;;;;;;;3.88;0.98;;;19.80;99.90;;;;;;5032932;28;20029;-42
2023/07/26 05:43:59;;;;;;;1.35;1.10;;;19.80;99.90;;;;;;5032957;28;20060;-41
2023/07/26 05:46:25;;;;;;;1.33;1.00;;;19.80;99.90;;;;;;5032886;28;20028;-41
2023/07/26 05:48:51;;;;;;;1.67;1.10;;;19.80;99.90;;;;;;5032917;28;20033;-39
2023/07/26 05:51:16;;;;;;;1.20;1.10;;;19.80;99.90;;;;;;5032762;28;20033;-42
2023/07/26 05:53:42;;;;;;;1.55;1.10;;;19.80;99.90;;;;;;5032700;28;20032;-42
2023/07/26 05:56:09;;;;;;;1.92;0.95;;;19.80;99.90;;;;;;5032547;28;20443;-42
2023/07/26 05:58:34;;;;;;;2.70;1.33;;;19.80;99.90;;;;;;5032608;28;20025;-41
2023/07/26 06:01:00;;;;;;;1.77;0.90;;;19.70;99.90;;;;;;5032409;28;20032;-41
2023/07/26 06:03:26;;;;;;;1.70;1.05;;;19.80;99.90;;;;;;5032565;28;20069;-39
2023/07/26 06:05:51;;;;;;;1.75;1.00;;;19.70;99.90;;;;;;5032520;28;20025;-42
2023/07/26 06:08:17;;;;;;;3.15;1.42;;;19.80;99.90;;;;;;5032367;28;20111;-41
2023/07/26 06:10:43;;;;;;;2.05;1.00;;;19.70;99.90;;;;;;5032100;28;20450;-41
2023/07/26 06:13:12;;;;;;;2.03;1.00;;;19.70;99.90;;;;;;5032358;28;20029;-44
2023/07/26 06:15:41;;;;;;;1.48;0.88;;;19.80;99.90;;;;;;5032264;28;20029;-44
2023/07/26 06:18:07;;;;;;;1.20;0.90;;;19.80;99.90;;;;;;5032251;28;20033;-41
2023/07/26 06:20:32;;;;;;;3.78;1.10;;;19.80;99.90;;;;;;5031881;28;20052;-42
2023/07/26 06:22:58;;;;;;;1.92;1.48;;;19.70;99.90;;;;;;5032139;28;20057;-40
2023/07/26 06:25:23;;;;;;;2.47;1.10;;;19.70;99.90;;;;;;5032070;28;20105;-42
2023/07/26 06:27:49;;;;;;;1.30;1.00;;;19.80;99.90;;;;;;5032124;28;20496;-40
2023/07/26 06:30:15;;;;;;;1.40;1.05;;;19.70;99.90;;;;;;5031915;28;20075;-42
2023/07/26 06:32:41;;;;;;;1.65;1.05;;;19.80;99.90;;;;;;5032035;28;20086;-42
2023/07/26 06:35:10;;;;;;;1.83;1.00;;;19.70;99.90;;;;;;5031999;28;20409;-44
2023/07/26 06:37:36;;;;;;;1.75;0.90;;;19.70;99.90;;;;;;5032322;28;20033;-41
2023/07/26 06:40:02;;;;;;;2.75;1.00;;;19.80;99.90;;;;;;5031554;28;20026;-43
2023/07/26 06:42:28;;;;;;;2.40;0.85;;;19.70;99.90;;;;;;5031889;28;20048;-42
2023/07/26 06:44:54;;;;;;;1.30;0.80;;;19.70;99.90;;;;;;5031762;28;20013;-47
2023/07/26 06:47:20;;;;;;;2.10;1.10;;;19.80;99.90;;;;;;5031763;28;20033;-40
2023/07/26 06:49:45;;;;;;;1.63;1.08;;;19.80;99.90;;;;;;5031528;28;20629;-42
2023/07/26 06:52:11;;;;;;;3.28;0.90;;;19.70;99.90;;;;;;5031665;28;20033;-40
2023/07/26 06:54:37;;;;;;;1.85;1.10;;;19.80;99.90;;;;;;5031541;28;20044;-41
2023/07/26 06:57:03;;;;;;;2.30;0.98;;;19.70;99.90;;;;;;5031539;28;20218;-41
2023/07/26 06:59:28;;;;;;;1.13;0.75;;;19.80;99.90;;;;;;5031285;28;20037;-41
2023/07/26 07:01:54;;;;;;;1.02;0.90;;;19.70;99.90;;;;;;5031800;28;20117;-39
2023/07/26 07:04:20;;;;;;;3.17;1.10;;;19.70;99.90;;;;;;5031447;28;20021;-42
2023/07/26 07:06:45;;;;;;;3.03;0.98;;;19.70;99.90;;;;;;5031463;28;20038;-42
2023/07/26 07:09:12;;;;;;;2.95;1.00;;;19.70;99.90;;;;;;5030942;28;20393;-41
2023/07/26 07:11:37;;;;;;;1.67;1.20;;;19.70;99.90;;;;;;5031369;28;20025;-42
2023/07/26 07:14:03;;;;;;;2.28;1.15;;;19.70;99.90;;;;;;5031372;28;20029;-41
2023/07/26 07:16:29;;;;;;;1.92;0.80;;;19.70;99.90;;;;;;5031300;28;20123;-43
2023/07/26 07:18:54;;;;;;;2.70;1.00;;;19.70;99.90;;;;;;5030986;28;20036;-42
2023/07/26 07:21:20;;;;;;;1.73;0.93;;;19.70;99.90;;;;;;5031821;28;20043;-44
2023/07/26 07:23:46;;;;;;;1.13;0.95;;;19.70;99.90;;;;;;5031110;28;20491;-39
2023/07/26 07:26:12;;;;;;;1.67;1.10;;;19.70;99.90;;;;;;5031228;28;20021;-42
2023/07/26 07:28:38;;;;;;;2.05;1.05;;;19.70;99.90;;;;;;5031082;28;20033;-42
2023/07/26 07:31:03;;;;;;;2.00;0.95;;;19.70;99.90;;;;;;5030482;28;20037;-46
2023/07/26 07:33:30;;;;;;;2.38;0.98;;;19.70;99.90;;;;;;5031165;28;20029;-40
2023/07/26 07:35:55;;;;;;;1.20;0.90;;;19.70;99.90;;;;;;5031141;28;20025;-40
2023/07/26 07:38:21;;;;;;;1.70;0.90;;;19.70;99.90;;;;;;5030992;28;20017;-40
2023/07/26 07:40:47;;;;;;;2.55;0.80;;;19.70;99.90;;;;;;5031065;28;20493;-44
2023/07/26 07:43:13;;;;;;;2.22;1.02;;;19.70;99.90;;;;;;5031121;28;20025;-41
2023/07/26 07:45:42;;;;;;;2.63;1.20;;;19.70;99.90;;;;;;5031031;28;20029;-40
2023/07/26 07:48:08;;;;;;;2.15;0.90;;;19.70;99.90;;;;;;5030974;28;20100;-39
2023/07/26 07:50:34;;;;;;;1.67;1.00;;;19.70;99.90;;;;;;5030814;28;20457;-41
2023/07/26 07:53:01;;;;;;;1.30;0.90;;;19.70;99.90;;;;;;5030898;28;20060;-40
2023/07/26 07:55:26;;;;;;;1.50;1.00;;;19.70;99.90;;;;;;5030897;28;20038;-42
2023/07/26 07:57:52;;;;;;;1.58;0.98;;;19.70;99.90;;;;;;5030879;28;20017;-41
2023/07/26 08:00:18;;;;;;;2.95;0.98;;;19.70;99.90;;;;;;5030728;28;20392;-42
2023/07/26 08:02:43;;;;;;;1.90;0.80;;;19.70;99.90;;;;;;5030859;28;20046;-41
2023/07/26 08:05:10;;;;;;;1.10;1.00;;;19.70;99.90;;;;;;5030882;28;20060;-40
2023/07/26 08:07:36;;;;;;;1.60;0.90;;;19.70;99.90;;;;;;5030616;28;20105;-39
2023/07/26 08:10:01;;;;;;;3.22;0.90;;;19.70;99.90;;;;;;5030621;28;20057;-41
2023/07/26 08:12:27;;;;;;;1.13;0.80;;;19.70;99.90;;;;;;5031082;28;20043;-40
2023/07/26 08:14:53;;;;;;;1.73;0.90;;;19.70;99.90;;;;;;5030814;28;20440;-41
2023/07/26 08:17:18;;;;;;;1.63;0.90;;;19.70;99.90;;;;;;5030671;28;20493;-41
2023/07/26 08:19:46;;;;;;;1.15;0.63;;;19.70;99.90;;;;;;5030318;28;20092;-41
2023/07/26 08:22:12;;;;;;;0.90;0.70;;;19.70;99.90;;;;;;5030577;28;20036;-41
2023/07/26 08:24:37;;;;;;;1.30;0.73;;;19.70;99.90;;;;;;5031008;28;20116;-41
2023/07/26 08:27:06;;;;;;;1.98;1.00;;;19.70;99.90;;;;;;5030694;28;20432;-42
2023/07/26 08:29:32;;;;;;;1.83;0.60;;;19.70;99.90;;;;;;5030506;28;20036;-43
2023/07/26 08:31:57;;;;;;;2.15;1.00;;;19.70;99.90;;;;;;5030633;28;20029;-43
2023/07/26 08:34:23;;;;;;;1.60;0.80;;;19.60;99.90;;;;;;5030648;28;20033;-40
2023/07/26 08:36:49;;;;;;;1.45;0.80;;;19.70;99.90;;;;;;5030409;28;20033;-41
2023/07/26 08:39:14;;;;;;;1.88;0.80;;;19.70;99.90;;;;;;5030320;28;20021;-41
2023/07/26 08:41:41;;;;;;;1.38;0.68;;;19.60;99.90;;;;;;5030623;28;20067;-40
2023/07/26 08:44:08;;;;;;;1.27;0.60;;;19.70;99.90;;;;;;5032173;28;20202;-41
2023/07/26 08:46:37;;;;;;;1.40;0.88;;;19.60;99.90;;;;;;5034089;28;20036;-41
2023/07/26 08:49:03;;;;;;;1.33;0.60;;;19.60;99.90;;;;;;5033705;28;20025;-40
2023/07/26 08:51:30;;;;;;;0.63;0.60;;;19.70;99.90;;;;;;5034029;28;20206;-42
2023/07/26 08:53:57;;;;;;;1.10;0.80;;;19.60;99.90;;;;;;5033964;28;20026;-42
2023/07/26 08:56:25;;;;;;;1.02;0.70;;;19.60;99.90;;;;;;5033887;28;20485;-39
2023/07/26 08:58:51;;;;;;;1.10;0.70;;;19.60;99.90;;;;;;5033709;28;20040;-40
2023/07/26 09:01:17;;;;;;;0.98;0.70;;;19.60;99.90;;;;;;5034066;28;20025;-40
2023/07/26 09:03:43;;;;;;;1.33;0.80;;;19.70;99.90;;;;;;5033962;28;20057;-45
2023/07/26 09:06:09;;;;;;;0.98;0.70;;;19.70;99.90;;;;;;5033631;28;20026;-39
2023/07/26 09:08:35;;;;;;;1.33;0.60;;;19.60;99.90;;;;;;5033548;28;20037;-40
2023/07/26 09:11:17;;;;;;;1.08;0.60;;;19.60;99.90;;;;;;5033416;28;20033;-40
2023/07/26 09:13:43;;;;;;;1.20;0.80;;;19.60;99.90;;;;;;5033523;28;20025;-42
2023/07/26 09:16:09;;;;;;;1.35;0.60;;;19.60;99.90;;;;;;5033377;28;20385;-42
2023/07/26 09:18:35;;;;;;;1.55;0.63;;;19.60;99.90;;;;;;5033234;28;20025;-42
2023/07/26 09:21:02;;;;;;;1.30;0.70;;;19.60;99.90;;;;;;5033166;28;20419;-42
2023/07/26 09:23:27;;;;;;;0.98;0.55;;;19.60;99.90;;;;;;5033358;28;20480;-41
2023/07/26 09:25:53;;;;;;;0.80;0.70;;;19.60;99.90;;;;;;5033313;28;20056;-40
2023/07/26 09:28:21;;;;;;;0.60;0.60;;;19.60;99.90;;;;;;5033186;28;20109;-41
2023/07/26 09:30:48;;;;;;;1.13;0.73;;;19.60;99.90;;;;;;5032970;28;20167;-41
2023/07/26 09:33:15;;;;;;;0.63;0.60;;;19.60;99.90;;;;;;5033146;28;20477;-40
2023/07/26 09:35:44;;;;;;;0.82;0.70;;;19.60;99.90;;;;;;5033028;28;20485;-41
2023/07/26 09:38:15;;;;;;;1.15;0.50;;;19.60;99.90;;;;;;5032993;28;20021;-41
2023/07/26 09:40:41;;;;;;;0.70;0.40;;;19.60;99.90;;;;;;5032813;28;20060;-42
2023/07/26 09:43:07;;;;;;;1.40;0.60;;;19.60;99.90;;;;;;5032986;28;20049;-41
2023/07/26 09:45:33;;;;;;;1.08;0.57;;;19.60;99.90;;;;;;5032877;28;20516;-40
2023/07/26 09:48:13;;;;;;;1.10;0.60;;;19.70;99.90;;;;;;5032896;28;20394;-39
2023/07/26 09:50:41;;;;;;;0.98;0.70;;;19.70;99.90;;;;;;5032621;28;20045;-44
2023/07/26 09:53:07;;;;;;;0.80;0.52;;;19.70;99.90;;;;;;5032853;28;20018;-41
2023/07/26 09:55:33;;;;;;;0.88;0.50;;;19.70;99.90;;;;;;5032302;28;20493;-43
2023/07/26 09:58:00;;;;;;;0.98;0.68;;;19.70;99.90;;;;;;5032573;28;20021;-40
2023/07/26 10:00:28;;;;;;;0.70;0.60;;;19.70;99.90;;;;;;5032478;28;20083;-42
2023/07/26 10:02:59;;;;;;;1.55;0.43;;;19.70;99.90;;;;;;5032581;28;20033;-42
2023/07/26 10:05:26;;;;;;;1.92;0.52;;;19.70;99.90;;;;;;5032539;28;20022;-41
2023/07/26 10:07:53;;;;;;;2.63;0.70;;;19.70;99.90;;;;;;5032491;28;20025;-39
2023/07/26 10:10:20;;;;;;;1.52;0.55;;;19.70;99.90;;;;;;5032219;28;20025;-42
2023/07/26 10:12:46;;;;;;;0.77;0.55;;;19.70;99.90;;;;;;5032390;28;20381;-41
2023/07/26 10:15:16;;;;;;;0.80;0.50;;;19.70;99.90;;;;;;5032373;28;20542;-43
2023/07/26 10:17:49;;;;;;;1.05;0.60;;;19.70;99.90;;;;;;5032046;28;20505;-40
2023/07/26 10:20:15;;;;;;;0.60;0.60;;;19.70;99.90;;;;;;5032066;28;20028;-43
2023/07/26 10:22:42;;;;;;;0.57;0.55;;;19.70;99.90;;;;;;5032192;28;20025;-40
2023/07/26 10:25:09;;;;;;;1.13;0.65;;;19.70;99.90;;;;;;5032562;28;20033;-40
2023/07/26 10:27:35;;;;;;;1.33;0.65;;;19.70;99.90;;;;;;5032114;28;20053;-39
2023/07/26 10:30:02;;;;;;;0.50;0.50;;;19.70;99.90;;;;;;5031966;28;20696;-42
2023/07/26 10:32:27;;;;;;;0.95;0.47;;;19.70;99.90;;;;;;5031995;28;20107;-42
2023/07/26 10:34:55;;;;;;;1.35;0.50;;;19.70;99.90;;;;;;5032288;28;20076;-44
2023/07/26 10:37:21;;;;;;;1.75;0.60;;;19.80;99.90;;;;;;5031848;28;20109;-44
2023/07/26 10:39:48;;;;;;;0.88;0.60;;;19.70;99.90;;;;;;5013815;28;20029;-40
2023/07/26 10:42:44;;;;;;;1.75;0.70;;;19.70;99.90;;;;;;5031913;28;20071;-39
2023/07/26 10:45:41;;;;;;;1.90;0.60;;;19.70;99.90;;;;;;5018827;28;20033;-40
2023/07/26 10:48:12;;;;;;;1.45;0.57;;;19.70;99.90;;;;;;5031656;28;20032;-41
2023/07/26 10:50:38;;;;;;;0.70;0.52;;;19.80;99.90;;;;;;5031583;28;20033;-41
2023/07/26 10:53:38;;;;;;;1.30;0.65;;;19.70;99.90;;;;;;5031736;28;20102;-41
2023/07/26 10:56:12;;;;;;;0.68;0.60;;;19.70;99.90;;;;;;5031493;28;20057;-41
2023/07/26 10:59:23;;;;;;;1.08;0.70;;;19.80;99.90;;;;;;5031555;28;20013;-42
2023/07/26 11:01:48;;;;;;;0.98;0.60;;;19.70;99.90;;;;;;5031656;28;20120;-40
2023/07/26 11:04:21;;;;;;;0.80;0.50;;;19.70;99.90;;;;;;5031580;28;20480;-44
2023/07/26 11:06:56;;;;;;;0.90;0.50;;;19.70;99.90;;;;;;5030732;28;20029;-43
2023/07/26 11:09:25;;;;;;;1.10;0.52;;;19.70;99.90;;;;;;5031183;28;20030;-43
2023/07/26 11:12:02;;;;;;;1.27;0.50;;;19.70;99.90;;;;;;5031414;28;20073;-43
2023/07/26 11:14:32;;;;;;;1.13;0.70;;;19.70;99.90;;;;;;5031442;28;20029;-42
2023/07/26 11:17:07;;;;;;;0.80;0.57;;;19.70;99.90;;;;;;5031285;28;20112;-39
2023/07/26 11:19:46;;;;;;;1.20;0.50;;;19.80;99.90;;;;;;5031007;28;20091;-42
2023/07/26 11:22:12;;;;;;;2.00;0.70;;;19.80;99.90;;;;;;5031491;28;20436;-40
2023/07/26 11:24:38;;;;;;;0.98;0.70;;;19.80;99.90;;;;;;5031296;28;20033;-41
2023/07/26 11:27:05;;;;;;;0.57;0.43;;;19.80;99.90;;;;;;5031265;28;20057;-41
2023/07/26 11:29:32;;;;;;;2.83;0.63;;;19.80;99.90;;;;;;5030800;28;20173;-42
2023/07/26 11:31:58;;;;;;;0.60;0.55;;;19.80;99.90;;;;;;5031435;28;20472;-40
2023/07/26 11:34:23;;;;;;;1.25;0.50;;;19.80;99.90;;;;;;5031158;28;20112;-40
2023/07/26 11:36:49;;;;;;;0.70;0.50;;;19.80;99.90;;;;;;5031201;28;20079;-40
2023/07/26 11:39:25;;;;;;;0.63;0.50;;;19.80;99.90;;;;;;5030825;28;20528;-41
2023/07/26 11:41:52;;;;;;;0.98;0.70;;;19.80;99.90;;;;;;5031117;28;20049;-43
2023/07/26 11:44:22;;;;;;;1.60;0.52;;;19.80;99.90;;;;;;5030994;28;20513;-41
2023/07/26 11:46:48;;;;;;;0.70;0.52;;;19.80;99.90;;;;;;5031005;28;20037;-41
2023/07/26 11:49:19;;;;;;;0.77;0.70;;;19.80;99.90;;;;;;5030951;28;20276;-40
2023/07/26 11:51:44;;;;;;;0.90;0.70;;;19.80;99.90;;;;;;5031351;28;20112;-42
2023/07/26 11:54:10;;;;;;;0.60;0.50;;;19.80;99.90;;;;;;5030967;28;20108;-40
2023/07/26 11:56:37;;;;;;;0.60;0.50;;;19.80;99.90;;;;;;5030782;28;20030;-42
2023/07/26 11:59:03;;;;;;;1.00;0.75;;;19.80;99.90;;;;;;5030693;28;20104;-40
2023/07/26 12:01:30;;;;;;;1.73;0.70;;;19.80;99.90;;;;;;5031053;28;20432;-43
2023/07/26 12:03:56;;;;;;;0.98;0.70;;;19.90;99.90;;;;;;5030902;28;20038;-42
2023/07/26 12:06:28;;;;;;;1.13;0.70;;;19.90;99.90;;;;;;5030899;28;20053;-42
2023/07/26 12:09:03;;;;;;;2.15;0.80;;;19.90;99.90;;;;;;5030693;28;20029;-42
2023/07/26 12:11:29;;;;;;;0.95;0.70;;;19.90;99.90;;;;;;5030834;28;20021;-41
2023/07/26 12:13:57;;;;;;;2.08;0.65;;;19.90;99.90;;;;;;5030837;28;20091;-42
2023/07/26 12:16:27;;;;;;;1.15;0.85;;;19.90;99.90;;;;;;5030797;28;20033;-40
2023/07/26 12:18:57;;;;;;;2.30;0.77;;;19.90;99.90;;;;;;5033336;28;20404;-39
2023/07/26 12:21:24;;;;;;;1.20;0.70;;;19.90;99.90;;;;;;5034575;28;20013;-40
2023/07/26 12:23:58;;;;;;;1.13;0.75;;;19.90;99.90;;;;;;5034778;28;20037;-41
2023/07/26 12:26:28;;;;;;;0.93;0.80;;;19.90;99.90;;;;;;5034489;28;20025;-41
2023/07/26 12:28:54;;;;;;;1.38;0.98;;;19.90;99.90;;;;;;5034135;28;20059;-41
2023/07/26 12:31:27;;;;;;;2.28;1.00;;;19.90;99.90;;;;;;5034333;28;20029;-41
2023/07/26 12:34:07;;;;;;;0.90;0.70;;;19.90;99.90;;;;;;5034374;28;20400;-41
2023/07/26 12:36:41;;;;;;;1.88;0.90;;;19.90;99.90;;;;;;5034213;28;20021;-42
2023/07/26 12:39:07;;;;;;;;;;;19.90;99.90;;;;;;5034483;28;20026;-41
2023/07/26 12:41:38;;;;;;;1.50;1.00;;;19.90;99.90;;;;;;5034151;28;19912;-41
2023/07/26 12:44:06;;;;;;;1.27;0.95;;;19.90;99.90;;;;;;5034089;28;20104;-40
2023/07/26 12:46:32;;;;;;;0.98;0.68;;;19.90;99.90;;;;;;5033947;28;20049;-40